Portada
METAR-TAF:

METAR-TAF

Aeroports :

Gwened, França

latitud: 47-43-19N, longitud: 2-43-41W, altitud: 130 m

Observació

L'informe es va fer fa 34 minuts, a les 20:00 UTC
Vent 5 kt del Sud/Sud-Oest, variant entre Sud i Oest/Sud-Oest
Temperatura 19°C
Humitat 83%
Pressió 1012 hPa
Visibilitat 10 km o més
Cel cobert a una alçada de 1400 ft

METAR: LFRV 192000Z AUTO 21005KT 180V240 9999 OVC014 19/16 Q1012

Hora: 22:34 (20:34 UTC)


TAF: manca

Observacions i pronòstics meteorològics de més de 4000 aeroports (METAR i TAF).

Les estacions disponibles són els punts grocs i vermells al mapa.

Posi el ratolí al punt desitjat per veure el nom de l'estació.

Feu clic per veure les observacions i els pronòstics meteorològics.

Per canviar el mapa: feu clic els botons verds amb una creu de color negre per apropar; al botó verd amb un guió per allunyar la imatge; o en les fletxes verdes per a mapes adjacents.


METAR-TAF: